Lamar, Oklahoma
Current Conditions -  °F | °C
As of 11:53 AM on Friday 24 Oct 2014 (Local Time) from KMLC Reporting Station
Clear Clear  
Wind Chill: 73°   Ceiling: Unl
Heat Index: 73°   Visibility: 10mi
Dew Point: 56°   Wind: 7mph
Humidity: 55%   Direction: NA
Pressure: 30.16"   Gusts: NA
Location:  35.1°N, 96.13°W
Report Text: KMLC 241653Z AUTO VRB06KT 10SM CLR 23/13 A3016 RMK AO2 SLP207 T02280133
Loading
Personal Weather Stations






























Interactive Weather Map
Tropical Storm Tracking
New forecast layout! Learn more

10-Day Weather Forecast

Advertisements
Track Severe Weather on mobile